createdAt,value
2022-08-29T00:00:32.428Z,16.90
2022-08-29T00:03:01.276Z,16.70
2022-08-29T00:05:33.639Z,16.80
2022-08-29T00:08:02.242Z,16.70
2022-08-29T00:10:31.816Z,16.50
2022-08-29T00:12:58.527Z,16.40
2022-08-29T00:15:26.032Z,16.30
2022-08-29T00:17:52.979Z,16.30
2022-08-29T00:20:22.932Z,16.20
2022-08-29T00:23:00.863Z,16.10
2022-08-29T00:25:27.980Z,16.00
2022-08-29T00:27:54.703Z,16.00
2022-08-29T00:30:23.683Z,15.90
2022-08-29T00:32:51.653Z,15.80
2022-08-29T00:35:23.187Z,15.70
2022-08-29T00:37:52.041Z,15.70
2022-08-29T00:40:23.381Z,15.60
2022-08-29T00:42:50.084Z,15.60
2022-08-29T00:45:17.958Z,15.70
2022-08-29T00:48:06.261Z,15.90
2022-08-29T00:50:38.645Z,16.10
2022-08-29T00:53:07.526Z,16.00
2022-08-29T00:55:35.952Z,15.90
2022-08-29T00:58:08.428Z,15.70
2022-08-29T01:00:36.004Z,15.70
2022-08-29T01:03:05.195Z,15.60
2022-08-29T01:05:32.746Z,15.50
2022-08-29T01:07:59.737Z,15.50
2022-08-29T01:10:45.097Z,15.50
2022-08-29T01:13:12.332Z,15.40
2022-08-29T01:15:41.954Z,15.40
2022-08-29T01:18:10.202Z,15.50
2022-08-29T01:21:01.382Z,15.80
2022-08-29T01:23:33.921Z,15.90
2022-08-29T01:26:02.476Z,15.80
2022-08-29T01:28:33.048Z,15.90
2022-08-29T01:31:05.042Z,16.00
2022-08-29T01:33:41.821Z,15.90
2022-08-29T01:36:10.569Z,15.80
2022-08-29T01:38:38.400Z,15.80
2022-08-29T01:41:05.687Z,15.70
2022-08-29T01:43:41.124Z,15.80
2022-08-29T01:46:08.941Z,15.80
2022-08-29T01:48:38.613Z,15.90
2022-08-29T01:51:05.639Z,16.00
2022-08-29T01:53:32.424Z,15.90
2022-08-29T01:55:59.076Z,15.70
2022-08-29T01:58:25.677Z,15.60
2022-08-29T02:00:52.528Z,15.50
2022-08-29T02:03:19.184Z,15.60
2022-08-29T02:05:47.785Z,15.50
2022-08-29T02:08:14.709Z,15.40
2022-08-29T02:10:41.525Z,15.40
2022-08-29T02:13:08.236Z,15.50
2022-08-29T02:15:35.658Z,15.60
2022-08-29T02:18:02.344Z,15.70
2022-08-29T02:20:29.200Z,15.40
2022-08-29T02:22:55.826Z,15.30
2022-08-29T02:25:40.970Z,15.30
2022-08-29T02:28:11.876Z,15.40
2022-08-29T02:30:40.578Z,15.30
2022-08-29T02:33:08.182Z,15.30
2022-08-29T02:35:37.965Z,15.40
2022-08-29T02:38:10.677Z,15.40
2022-08-29T02:40:37.938Z,15.50
2022-08-29T02:43:05.513Z,15.50
2022-08-29T02:45:32.664Z,15.50
2022-08-29T02:47:59.712Z,15.40
2022-08-29T02:50:26.407Z,15.40
2022-08-29T02:52:53.108Z,15.20
2022-08-29T02:55:21.731Z,15.00
2022-08-29T02:57:48.661Z,14.90
2022-08-29T03:00:19.248Z,14.80
2022-08-29T03:02:47.315Z,14.80
2022-08-29T03:05:16.144Z,14.70
2022-08-29T03:07:44.468Z,14.80
2022-08-29T03:10:12.646Z,14.80
2022-08-29T03:12:39.961Z,14.90
2022-08-29T03:15:08.062Z,15.00
2022-08-29T03:17:35.314Z,15.20
2022-08-29T03:20:02.676Z,15.30
2022-08-29T03:22:29.393Z,15.30
2022-08-29T03:24:56.065Z,15.20
2022-08-29T03:27:22.937Z,15.20
2022-08-29T03:29:49.556Z,15.10
2022-08-29T03:32:16.179Z,15.30
2022-08-29T03:34:42.825Z,15.40
2022-08-29T03:37:09.446Z,15.40
2022-08-29T03:39:37.883Z,15.40
2022-08-29T03:42:06.422Z,15.40
2022-08-29T03:44:37.945Z,15.30
2022-08-29T03:47:05.729Z,15.30
2022-08-29T03:49:33.213Z,15.20
2022-08-29T03:52:00.437Z,15.30
2022-08-29T03:54:27.519Z,15.20
2022-08-29T03:56:55.529Z,15.20
2022-08-29T03:59:23.298Z,15.20
2022-08-29T04:01:50.683Z,15.30
2022-08-29T04:04:37.461Z,15.20
2022-08-29T04:07:06.409Z,14.90
2022-08-29T04:09:33.530Z,14.90
2022-08-29T04:12:00.728Z,14.70
2022-08-29T04:14:27.460Z,14.70
2022-08-29T04:16:54.160Z,14.70
2022-08-29T04:19:21.932Z,14.80
2022-08-29T04:21:48.924Z,14.80
2022-08-29T04:24:16.488Z,14.80
2022-08-29T04:26:43.068Z,14.80
2022-08-29T04:29:11.982Z,14.80
2022-08-29T04:31:40.070Z,14.90
2022-08-29T04:34:08.537Z,14.90
2022-08-29T04:36:36.431Z,15.00
2022-08-29T04:39:05.161Z,14.90
2022-08-29T04:41:33.287Z,14.80
2022-08-29T04:44:00.411Z,14.80
2022-08-29T04:46:27.209Z,14.70
2022-08-29T04:48:54.123Z,14.70
2022-08-29T04:51:21.483Z,14.70
2022-08-29T04:53:49.887Z,14.80
2022-08-29T04:56:16.591Z,14.80
2022-08-29T04:58:44.769Z,14.80
2022-08-29T05:01:17.390Z,14.90
2022-08-29T05:03:44.384Z,15.00
2022-08-29T05:06:13.720Z,15.10
2022-08-29T05:08:41.848Z,15.10
2022-08-29T05:11:22.786Z,15.10
2022-08-29T05:13:51.831Z,15.10
2022-08-29T05:16:18.740Z,15.10
2022-08-29T05:18:46.744Z,15.20
2022-08-29T05:21:27.003Z,15.40
2022-08-29T05:23:56.458Z,15.50
2022-08-29T05:26:23.561Z,15.60
2022-08-29T05:28:51.370Z,15.70
2022-08-29T05:31:18.590Z,15.90
2022-08-29T05:33:45.205Z,16.10
2022-08-29T05:36:12.397Z,16.30
2022-08-29T05:38:39.092Z,16.40
2022-08-29T05:41:07.412Z,16.60
2022-08-29T05:43:34.967Z,16.70
2022-08-29T05:46:11.314Z,16.80
2022-08-29T05:48:45.187Z,17.00
2022-08-29T05:51:16.924Z,17.00
2022-08-29T05:53:43.586Z,16.90
2022-08-29T05:56:10.456Z,16.80
2022-08-29T05:58:37.167Z,16.90
2022-08-29T06:01:04.041Z,16.90
2022-08-29T06:03:31.458Z,17.00
2022-08-29T06:05:58.216Z,17.00
2022-08-29T06:08:24.987Z,17.10
2022-08-29T06:10:51.624Z,17.10
2022-08-29T06:13:18.531Z,17.20
2022-08-29T06:15:45.765Z,17.30
2022-08-29T06:18:13.503Z,17.40
2022-08-29T06:20:40.698Z,17.50
2022-08-29T06:23:07.458Z,17.60
2022-08-29T06:25:39.287Z,17.70
2022-08-29T06:28:07.139Z,17.80
2022-08-29T06:30:33.970Z,17.80
2022-08-29T06:33:01.765Z,17.90
2022-08-29T06:35:28.679Z,17.80
2022-08-29T06:37:55.744Z,18.00
2022-08-29T06:40:22.710Z,18.00
2022-08-29T06:42:49.662Z,18.20
2022-08-29T06:45:16.438Z,18.30
2022-08-29T06:47:45.454Z,18.40
2022-08-29T06:50:12.107Z,18.60
2022-08-29T06:52:38.771Z,18.70
2022-08-29T06:55:08.438Z,18.90
2022-08-29T06:57:35.108Z,18.90
2022-08-29T07:00:01.982Z,19.20
2022-08-29T07:02:41.052Z,19.30
2022-08-29T07:05:08.220Z,19.40
2022-08-29T07:07:35.925Z,19.70
2022-08-29T07:10:02.850Z,19.90
2022-08-29T07:12:29.471Z,20.20
2022-08-29T07:14:57.944Z,20.50
2022-08-29T07:17:25.911Z,20.70
2022-08-29T07:19:53.576Z,21.00
2022-08-29T07:22:20.428Z,21.40
2022-08-29T07:24:47.057Z,21.70
2022-08-29T07:27:14.932Z,21.90
2022-08-29T07:29:41.822Z,22.20
2022-08-29T07:32:08.538Z,22.20
2022-08-29T07:34:36.522Z,22.20
2022-08-29T07:37:05.774Z,22.10
2022-08-29T07:39:32.918Z,22.10
2022-08-29T07:41:59.638Z,22.30
2022-08-29T07:44:26.799Z,22.60
2022-08-29T07:46:58.584Z,22.80
2022-08-29T07:49:40.274Z,23.00
2022-08-29T07:52:07.884Z,22.90
2022-08-29T07:54:34.570Z,22.70
2022-08-29T07:57:01.453Z,22.60
2022-08-29T07:59:28.194Z,22.90
2022-08-29T08:01:55.027Z,23.00
2022-08-29T08:04:21.724Z,23.10
2022-08-29T08:06:50.941Z,23.10
2022-08-29T08:09:17.733Z,23.30
2022-08-29T08:11:44.627Z,23.50
2022-08-29T08:14:12.128Z,23.50
2022-08-29T08:16:39.001Z,23.50
2022-08-29T08:19:11.795Z,23.50
2022-08-29T08:21:38.438Z,23.70
2022-08-29T08:24:19.346Z,23.80
2022-08-29T08:26:47.183Z,23.70
2022-08-29T08:29:13.772Z,23.80
2022-08-29T08:31:49.423Z,23.90
2022-08-29T08:34:17.816Z,24.00
2022-08-29T08:36:45.657Z,24.20
2022-08-29T08:39:14.061Z,24.20
2022-08-29T08:41:59.255Z,24.20
2022-08-29T08:44:49.461Z,24.20
2022-08-29T08:47:25.729Z,24.40
2022-08-29T08:50:01.185Z,24.50
2022-08-29T08:52:37.655Z,24.30
2022-08-29T08:55:14.922Z,24.20
2022-08-29T08:57:48.061Z,24.20
2022-08-29T09:00:14.719Z,24.10
2022-08-29T09:03:02.266Z,24.20
2022-08-29T09:05:40.335Z,24.30
2022-08-29T09:08:35.677Z,24.60
2022-08-29T09:11:41.324Z,24.80
2022-08-29T09:14:14.553Z,24.90
2022-08-29T09:16:49.310Z,24.90
2022-08-29T09:19:18.007Z,24.90
2022-08-29T09:21:55.163Z,25.00
2022-08-29T09:24:36.605Z,25.10
2022-08-29T09:27:03.415Z,25.20
2022-08-29T09:29:30.981Z,25.30
2022-08-29T09:32:07.297Z,25.00
2022-08-29T09:35:04.810Z,25.00
2022-08-29T09:37:33.906Z,25.20
2022-08-29T09:40:15.861Z,25.50
2022-08-29T09:42:59.078Z,25.60
2022-08-29T09:45:26.844Z,25.60
2022-08-29T09:48:14.346Z,25.50
2022-08-29T09:50:41.102Z,25.50
2022-08-29T09:53:14.325Z,25.50
2022-08-29T09:55:52.338Z,25.40
2022-08-29T09:58:21.757Z,25.50
2022-08-29T10:01:09.927Z,25.40
2022-08-29T10:03:43.430Z,25.30
2022-08-29T10:06:17.375Z,25.20
2022-08-29T10:09:01.412Z,25.20
2022-08-29T10:11:56.467Z,25.40
2022-08-29T10:14:46.741Z,25.70
2022-08-29T10:17:56.459Z,25.70
2022-08-29T10:20:38.208Z,26.00
2022-08-29T10:23:18.206Z,25.90
2022-08-29T10:25:45.074Z,26.00
2022-08-29T10:28:37.090Z,26.20
2022-08-29T10:31:10.383Z,26.10
2022-08-29T10:34:08.768Z,26.30
2022-08-29T10:36:43.307Z,26.20
2022-08-29T10:39:33.581Z,26.30
2022-08-29T10:42:09.739Z,26.40
2022-08-29T10:44:51.961Z,26.60
2022-08-29T10:47:34.206Z,26.80
2022-08-29T10:50:47.565Z,26.70
2022-08-29T10:53:17.096Z,26.90
2022-08-29T10:55:53.851Z,27.10
2022-08-29T10:58:26.280Z,27.30
2022-08-29T11:01:22.324Z,27.20
2022-08-29T11:03:58.655Z,27.40
2022-08-29T11:06:31.136Z,27.30
2022-08-29T11:09:15.941Z,27.60
2022-08-29T11:11:55.533Z,27.70
2022-08-29T11:14:28.050Z,27.80
2022-08-29T11:16:56.025Z,27.90
2022-08-29T11:19:30.663Z,27.90
2022-08-29T11:22:04.846Z,27.70
2022-08-29T11:24:36.022Z,27.20
2022-08-29T11:27:18.847Z,27.00
2022-08-29T11:29:51.379Z,27.20
2022-08-29T11:32:21.008Z,27.50
2022-08-29T11:34:52.656Z,27.50
2022-08-29T11:37:28.858Z,27.50
2022-08-29T11:40:47.199Z,27.60
2022-08-29T11:43:12.433Z,27.70
2022-08-29T11:45:42.813Z,28.00
2022-08-29T11:48:39.552Z,28.20
2022-08-29T11:51:37.323Z,28.40
2022-08-29T11:54:42.370Z,28.70
2022-08-29T11:57:08.985Z,28.80
2022-08-29T11:59:56.750Z,28.80
2022-08-29T12:02:30.161Z,28.80
2022-08-29T12:05:16.537Z,28.80
2022-08-29T12:08:14.521Z,29.00
2022-08-29T12:10:55.396Z,29.20
2022-08-29T12:13:43.706Z,29.10
2022-08-29T12:16:12.319Z,29.20
2022-08-29T12:18:45.319Z,29.40
2022-08-29T12:21:38.313Z,29.30
2022-08-29T12:24:29.220Z,29.20
2022-08-29T12:26:56.562Z,29.30
2022-08-29T12:29:33.244Z,29.50
2022-08-29T12:32:32.849Z,29.60
2022-08-29T12:35:17.800Z,29.60
2022-08-29T12:38:09.384Z,29.20
2022-08-29T12:41:18.285Z,29.20
2022-08-29T12:43:46.674Z,29.10
2022-08-29T12:46:28.112Z,29.20
2022-08-29T12:49:17.230Z,29.20
2022-08-29T12:51:47.808Z,29.10
2022-08-29T12:54:14.769Z,29.00
2022-08-29T12:56:48.524Z,28.70
2022-08-29T12:59:20.605Z,28.60
2022-08-29T13:01:50.110Z,28.80
2022-08-29T13:04:32.370Z,28.90
2022-08-29T13:07:08.711Z,29.10
2022-08-29T13:09:44.246Z,29.20
2022-08-29T13:12:10.820Z,29.20
2022-08-29T13:14:56.354Z,29.40
2022-08-29T13:17:45.134Z,29.40
2022-08-29T13:20:43.041Z,29.50
2022-08-29T13:23:12.613Z,29.60
2022-08-29T13:25:51.315Z,29.60
2022-08-29T13:28:40.779Z,29.50
2022-08-29T13:31:23.049Z,29.40
2022-08-29T13:33:49.731Z,29.50
2022-08-29T13:36:31.209Z,29.70
2022-08-29T13:39:25.323Z,29.70
2022-08-29T13:42:00.824Z,29.60
2022-08-29T13:44:46.050Z,29.30
2022-08-29T13:47:14.217Z,29.30
2022-08-29T13:49:41.159Z,29.50
2022-08-29T13:52:10.231Z,29.60
2022-08-29T13:54:40.444Z,29.70
2022-08-29T13:57:11.439Z,29.90
2022-08-29T13:59:38.150Z,29.70
2022-08-29T14:02:10.148Z,29.80
2022-08-29T14:04:39.782Z,29.90
2022-08-29T14:07:11.351Z,29.90
2022-08-29T14:09:40.797Z,29.90
2022-08-29T14:12:08.020Z,29.90
2022-08-29T14:14:34.683Z,30.00
2022-08-29T14:17:01.676Z,30.00
2022-08-29T14:19:29.490Z,30.10
2022-08-29T14:21:59.040Z,29.80
2022-08-29T14:24:29.169Z,29.80
2022-08-29T14:26:57.558Z,30.00
2022-08-29T14:29:31.022Z,30.00
2022-08-29T14:31:58.507Z,30.00
2022-08-29T14:34:25.557Z,30.00
2022-08-29T14:36:57.431Z,30.00
2022-08-29T14:39:26.543Z,30.00
2022-08-29T14:41:54.321Z,30.00
2022-08-29T14:44:21.882Z,30.00
2022-08-29T14:46:49.563Z,30.00
2022-08-29T14:49:16.323Z,30.10
2022-08-29T14:51:44.355Z,30.10
2022-08-29T14:54:11.901Z,30.20
2022-08-29T14:56:49.094Z,30.10
2022-08-29T14:59:16.631Z,30.10
2022-08-29T15:01:43.297Z,30.10
2022-08-29T15:04:11.080Z,30.10
2022-08-29T15:06:38.192Z,30.10
2022-08-29T15:09:05.543Z,30.10
2022-08-29T15:11:32.315Z,29.70
2022-08-29T15:14:04.426Z,29.80
2022-08-29T15:16:31.809Z,29.70
2022-08-29T15:19:44.767Z,29.70
2022-08-29T15:21:45.175Z,29.70
2022-08-29T15:24:11.917Z,29.70
2022-08-29T15:26:38.878Z,29.70
2022-08-29T15:29:05.654Z,29.90
2022-08-29T15:31:32.325Z,30.00
2022-08-29T15:33:58.929Z,30.10
2022-08-29T15:36:25.831Z,30.30
2022-08-29T15:38:52.513Z,30.40
2022-08-29T15:41:19.345Z,30.30
2022-08-29T15:43:46.045Z,30.30
2022-08-29T15:46:12.808Z,30.10
2022-08-29T15:48:39.621Z,30.00
2022-08-29T15:51:06.354Z,29.90
2022-08-29T15:53:33.045Z,29.90
2022-08-29T15:55:59.718Z,29.90
2022-08-29T15:58:26.776Z,30.00
2022-08-29T16:00:53.388Z,29.90
2022-08-29T16:03:20.056Z,30.10
2022-08-29T16:05:46.772Z,30.00
2022-08-29T16:08:17.547Z,30.00
2022-08-29T16:10:44.955Z,30.10
2022-08-29T16:13:11.707Z,30.00
2022-08-29T16:15:38.901Z,29.80
2022-08-29T16:18:06.665Z,29.60
2022-08-29T16:20:34.029Z,29.50
2022-08-29T16:23:01.895Z,29.40
2022-08-29T16:25:30.940Z,29.30
2022-08-29T16:27:59.253Z,29.20
2022-08-29T16:30:25.938Z,29.20
2022-08-29T16:32:55.147Z,29.20
2022-08-29T16:35:22.123Z,29.10
2022-08-29T16:38:02.548Z,29.10
2022-08-29T16:40:30.270Z,29.00
2022-08-29T16:42:56.961Z,28.70
2022-08-29T16:45:23.755Z,28.40
2022-08-29T16:47:54.128Z,28.30
2022-08-29T16:50:24.173Z,28.20
2022-08-29T16:52:50.771Z,28.10
2022-08-29T16:55:17.403Z,28.00
2022-08-29T16:58:04.003Z,28.10
2022-08-29T17:00:30.949Z,28.10
2022-08-29T17:02:57.598Z,28.00
2022-08-29T17:05:24.460Z,27.80
2022-08-29T17:07:51.158Z,27.70
2022-08-29T17:10:17.873Z,27.50
2022-08-29T17:12:44.555Z,27.40
2022-08-29T17:15:11.243Z,27.20
2022-08-29T17:17:37.940Z,27.10
2022-08-29T17:20:04.857Z,26.90
2022-08-29T17:22:31.495Z,26.70
2022-08-29T17:24:58.197Z,26.60
2022-08-29T17:27:29.867Z,26.50
2022-08-29T17:29:56.870Z,26.50
2022-08-29T17:32:23.552Z,26.40
2022-08-29T17:34:50.537Z,26.20
2022-08-29T17:37:17.243Z,26.10
2022-08-29T17:39:43.913Z,26.00
2022-08-29T17:42:10.710Z,26.00
2022-08-29T17:44:37.879Z,26.00
2022-08-29T17:47:04.695Z,25.90
2022-08-29T17:49:31.411Z,25.70
2022-08-29T17:51:58.352Z,25.70
2022-08-29T17:54:26.449Z,25.60
2022-08-29T17:56:58.948Z,25.60
2022-08-29T17:59:28.762Z,25.50
2022-08-29T18:01:56.627Z,25.30
2022-08-29T18:04:24.229Z,25.20
2022-08-29T18:06:51.878Z,25.10
2022-08-29T18:09:19.490Z,25.00
2022-08-29T18:11:49.541Z,24.90
2022-08-29T18:14:17.647Z,24.80
2022-08-29T18:16:44.410Z,24.80
2022-08-29T18:19:13.409Z,24.70
2022-08-29T18:21:41.349Z,24.60
2022-08-29T18:24:13.553Z,24.40
2022-08-29T18:26:41.610Z,24.40
2022-08-29T18:29:08.361Z,24.40
2022-08-29T18:31:35.132Z,24.30
2022-08-29T18:34:02.137Z,24.10
2022-08-29T18:36:30.894Z,24.00
2022-08-29T18:38:57.842Z,23.90
2022-08-29T18:41:24.625Z,23.90
2022-08-29T18:43:51.780Z,23.80
2022-08-29T18:46:19.058Z,23.80
2022-08-29T18:48:46.325Z,23.70
2022-08-29T18:51:14.522Z,23.60
2022-08-29T18:53:41.317Z,23.50
2022-08-29T18:56:07.970Z,23.50
2022-08-29T18:58:35.846Z,23.40
2022-08-29T19:01:11.124Z,23.40
2022-08-29T19:03:38.234Z,23.30
2022-08-29T19:06:05.120Z,23.20
2022-08-29T19:08:32.190Z,23.20
2022-08-29T19:11:00.180Z,23.20
2022-08-29T19:13:27.095Z,23.10
2022-08-29T19:15:58.990Z,23.10
2022-08-29T19:18:27.077Z,23.00
2022-08-29T19:21:02.815Z,23.00
2022-08-29T19:23:32.631Z,22.90
2022-08-29T19:26:00.457Z,22.90
2022-08-29T19:28:27.238Z,22.80
2022-08-29T19:30:54.027Z,22.70
2022-08-29T19:33:20.794Z,22.60
2022-08-29T19:35:49.485Z,22.50
2022-08-29T19:38:18.238Z,22.50
2022-08-29T19:40:48.516Z,22.50
2022-08-29T19:43:15.783Z,22.40
2022-08-29T19:45:44.222Z,22.40
2022-08-29T19:48:15.348Z,22.30
2022-08-29T19:50:43.428Z,22.40
2022-08-29T19:53:19.943Z,22.30
2022-08-29T19:55:53.670Z,22.20
2022-08-29T19:58:21.327Z,22.10
2022-08-29T20:00:48.023Z,22.00
2022-08-29T20:03:16.275Z,22.10
2022-08-29T20:05:43.145Z,22.00
2022-08-29T20:08:10.196Z,22.00
2022-08-29T20:10:36.843Z,21.90
2022-08-29T20:13:04.195Z,21.80
2022-08-29T20:15:31.009Z,21.70
2022-08-29T20:17:59.831Z,21.60
2022-08-29T20:20:31.596Z,21.50
2022-08-29T20:22:58.306Z,21.30
2022-08-29T20:25:25.031Z,21.20
2022-08-29T20:27:53.048Z,21.10
2022-08-29T20:30:23.799Z,21.10
2022-08-29T20:32:51.707Z,21.00
2022-08-29T20:35:39.531Z,21.00
2022-08-29T20:38:07.217Z,21.10
2022-08-29T20:40:37.392Z,21.00
2022-08-29T20:43:04.580Z,21.10
2022-08-29T20:45:31.186Z,21.00
2022-08-29T20:47:58.087Z,21.00
2022-08-29T20:50:25.515Z,20.80
2022-08-29T20:52:53.849Z,20.70
2022-08-29T20:55:20.896Z,20.60
2022-08-29T20:57:47.485Z,20.40
2022-08-29T21:00:14.576Z,20.30
2022-08-29T21:03:00.293Z,20.20
2022-08-29T21:05:45.678Z,20.20
2022-08-29T21:08:18.332Z,20.10
2022-08-29T21:10:46.395Z,20.00
2022-08-29T21:13:14.159Z,19.90
2022-08-29T21:15:41.719Z,19.80
2022-08-29T21:18:10.619Z,19.70
2022-08-29T21:20:53.718Z,19.70
2022-08-29T21:23:22.265Z,19.60
2022-08-29T21:25:53.690Z,19.60
2022-08-29T21:28:20.389Z,19.40
2022-08-29T21:30:47.023Z,19.40
2022-08-29T21:33:13.678Z,19.40
2022-08-29T21:35:41.961Z,19.40
2022-08-29T21:38:09.591Z,19.30
2022-08-29T21:40:44.057Z,19.30
2022-08-29T21:43:17.727Z,19.20
2022-08-29T21:45:44.520Z,19.20
2022-08-29T21:48:11.190Z,19.30
2022-08-29T21:50:38.458Z,19.40
2022-08-29T21:53:05.605Z,19.40
2022-08-29T21:55:32.933Z,19.40
2022-08-29T21:58:00.619Z,19.30
2022-08-29T22:00:34.258Z,19.00
2022-08-29T22:03:03.851Z,18.80
2022-08-29T22:05:31.504Z,18.60
2022-08-29T22:07:59.050Z,18.50
2022-08-29T22:10:30.240Z,18.40
2022-08-29T22:12:57.479Z,18.20
2022-08-29T22:15:43.626Z,18.30
2022-08-29T22:18:12.256Z,18.20
2022-08-29T22:20:38.947Z,18.00
2022-08-29T22:23:06.026Z,18.00
2022-08-29T22:25:32.849Z,17.90
2022-08-29T22:27:59.632Z,17.90
2022-08-29T22:30:32.074Z,18.00
2022-08-29T22:33:00.307Z,18.20
2022-08-29T22:35:28.351Z,18.40
2022-08-29T22:37:55.105Z,18.40
2022-08-29T22:40:21.917Z,18.40
2022-08-29T22:42:48.688Z,18.40
2022-08-29T22:45:16.833Z,18.30
2022-08-29T22:47:45.088Z,18.10
2022-08-29T22:50:17.812Z,18.00
2022-08-29T22:52:44.903Z,18.20
2022-08-29T22:55:15.599Z,18.20
2022-08-29T22:57:45.033Z,18.10
2022-08-29T23:00:15.861Z,18.00
2022-08-29T23:02:42.975Z,17.90
2022-08-29T23:05:10.368Z,17.80
2022-08-29T23:07:37.231Z,17.80
2022-08-29T23:10:05.805Z,17.70
2022-08-29T23:12:32.653Z,17.70
2022-08-29T23:14:59.303Z,17.70
2022-08-29T23:17:25.909Z,17.80
2022-08-29T23:19:52.631Z,17.80
2022-08-29T23:22:20.774Z,17.70
2022-08-29T23:24:51.605Z,17.60
2022-08-29T23:27:25.450Z,17.70
2022-08-29T23:29:52.451Z,17.60
2022-08-29T23:32:19.105Z,17.60
2022-08-29T23:34:45.752Z,17.50
2022-08-29T23:37:12.373Z,17.40
2022-08-29T23:39:39.003Z,17.40
2022-08-29T23:42:06.029Z,17.50
2022-08-29T23:44:32.641Z,17.50
2022-08-29T23:46:59.258Z,17.40
2022-08-29T23:49:25.869Z,17.30
2022-08-29T23:51:52.507Z,17.10
2022-08-29T23:54:19.319Z,17.00
2022-08-29T23:56:45.986Z,17.00
2022-08-29T23:59:32.582Z,17.00
